Time;durP1;ratioP1;P1;durP2;ratioP2;P2;SDS_P1;SDS_P2;PMS_P1;PMS_P2;Temp;Humidity;BMP_temperature;BMP_pressure;BME280_temperature;BME280_humidity;BME280_pressure;Samples;Min_cycle;Max_cycle;Signal;HPM_P1;HPM_P2
2022/01/04 00:00:53;;;;;;;2.33;1.00;;;;;;;9.16;66.20;94979.38;4838684;29;20065;-42
2022/01/04 00:03:21;;;;;;;2.53;0.90;;;;;;;9.17;66.02;94985.56;4825968;29;20470;-43
2022/01/04 00:05:48;;;;;;;1.90;0.95;;;;;;;9.17;65.56;94982.88;4823775;29;20149;-43
2022/01/04 00:08:15;;;;;;;3.83;1.00;;;;;;;9.23;64.90;94978.75;4825080;29;20050;-43
2022/01/04 00:10:42;;;;;;;2.42;0.90;;;;;;;9.29;65.07;94980.06;4841123;29;20042;-43
2022/01/04 00:13:24;;;;;;;4.55;1.13;;;;;;;9.32;64.48;94968.59;4827743;29;20050;-43
2022/01/04 00:15:53;;;;;;;1.70;0.80;;;;;;;9.37;64.25;94968.34;4843203;29;20146;-47
2022/01/04 00:18:21;;;;;;;1.75;0.73;;;;;;;9.36;64.34;94954.06;4839149;29;20137;-40
2022/01/04 00:20:48;;;;;;;3.10;1.05;;;;;;;9.40;63.99;94950.66;4824246;29;20499;-42
2022/01/04 00:23:16;;;;;;;2.17;1.02;;;;;;;9.42;64.19;94943.75;4824580;29;20501;-40
2022/01/04 00:25:44;;;;;;;2.53;0.80;;;;;;;9.45;63.63;94945.78;4824333;29;20547;-39
2022/01/04 00:28:11;;;;;;;2.75;0.70;;;;;;;9.42;63.65;94930.28;4824809;29;20433;-40
2022/01/04 00:30:39;;;;;;;1.83;0.90;;;;;;;9.49;63.39;94938.56;4826110;29;20058;-45
2022/01/04 00:33:10;;;;;;;1.52;0.55;;;;;;;9.51;63.85;94936.28;4856612;29;20045;-40
2022/01/04 00:35:37;;;;;;;2.88;0.80;;;;;;;9.53;63.01;94934.03;4842602;29;20056;-41
2022/01/04 00:38:05;;;;;;;1.25;0.60;;;;;;;9.54;63.29;94924.00;4841747;29;20050;-43
2022/01/04 00:40:32;;;;;;;1.05;0.68;;;;;;;9.55;62.86;94922.88;4833300;29;20042;-43
2022/01/04 00:42:59;;;;;;;1.50;0.80;;;;;;;9.62;62.67;94914.94;4824610;29;20136;-44
2022/01/04 00:45:31;;;;;;;2.50;1.13;;;;;;;9.64;62.92;94903.78;4823939;29;20046;-42
2022/01/04 00:50:28;;;;;;;1.38;0.70;;;;;;;9.73;61.88;94891.66;4842740;29;20325;-42
2022/01/04 00:52:56;;;;;;;1.30;0.80;;;;;;;9.68;62.61;94881.09;4827714;29;20552;-40
2022/01/04 00:55:24;;;;;;;3.22;0.88;;;;;;;9.83;61.60;94882.22;4824163;29;20046;-42
2022/01/04 00:57:51;;;;;;;1.45;0.65;;;;;;;9.70;61.75;94875.38;4825112;29;20054;-41
2022/01/04 01:00:19;;;;;;;1.33;0.73;;;;;;;9.69;62.62;94871.13;4823769;29;20394;-41
2022/01/04 01:02:47;;;;;;;1.52;0.90;;;;;;;9.69;61.53;94871.91;4806674;29;20142;-41
2022/01/04 01:05:15;;;;;;;2.13;0.80;;;;;;;9.75;60.96;94865.09;4805836;29;20138;-41
2022/01/04 01:07:42;;;;;;;1.85;0.80;;;;;;;9.73;60.76;94856.53;4806117;29;20050;-40
2022/01/04 01:12:44;;;;;;;1.73;1.08;;;;;;;9.74;60.67;94863.50;4842682;29;20061;-39
2022/01/04 01:15:11;;;;;;;1.48;0.68;;;;;;;9.89;60.31;94853.78;4843038;29;20420;-43
2022/01/04 01:17:39;;;;;;;1.88;0.73;;;;;;;9.83;60.42;94845.19;4841770;29;20046;-44
2022/01/04 01:20:08;;;;;;;1.55;0.65;;;;;;;9.80;59.71;94843.19;4842758;29;20046;-42
2022/01/04 01:22:36;;;;;;;1.65;0.60;;;;;;;9.85;60.10;94842.13;4830656;29;20058;-43
2022/01/04 01:25:04;;;;;;;2.50;0.75;;;;;;;9.87;60.06;94845.25;4826426;29;20141;-46
2022/01/04 01:27:31;;;;;;;1.90;0.85;;;;;;;9.86;59.44;94838.28;4825651;29;20056;-42
2022/01/04 01:29:58;;;;;;;3.15;0.90;;;;;;;9.85;59.56;94836.75;4825440;29;20046;-43
2022/01/04 01:32:25;;;;;;;1.40;0.90;;;;;;;9.82;59.54;94837.44;4841607;29;20058;-41
2022/01/04 01:34:52;;;;;;;1.77;0.93;;;;;;;9.84;59.20;94844.03;4841697;29;20054;-40
2022/01/04 01:37:19;;;;;;;1.27;0.70;;;;;;;9.98;59.59;94845.50;4841281;29;20061;-41
2022/01/04 01:39:47;;;;;;;1.00;0.80;;;;;;;9.97;58.99;94841.97;4833605;29;20133;-40
2022/01/04 01:42:14;;;;;;;2.15;0.70;;;;;;;10.04;58.90;94834.06;4823820;29;20057;-41
2022/01/04 01:44:41;;;;;;;1.55;0.70;;;;;;;9.96;58.94;94807.22;4837154;29;20517;-43
2022/01/04 01:47:08;;;;;;;1.75;0.80;;;;;;;9.95;58.25;94817.25;4823831;29;20342;-40
2022/01/04 01:49:35;;;;;;;2.00;0.70;;;;;;;10.07;58.01;94800.91;4835191;29;20053;-45
2022/01/04 01:52:03;;;;;;;2.38;0.70;;;;;;;10.06;58.09;94799.31;4840265;29;20133;-44
2022/01/04 01:54:30;;;;;;;1.52;0.65;;;;;;;10.08;58.73;94788.19;4841182;29;20061;-42
2022/01/04 01:56:57;;;;;;;2.08;0.90;;;;;;;10.16;58.04;94775.56;4841708;29;20042;-41
2022/01/04 01:59:24;;;;;;;2.17;0.77;;;;;;;10.11;57.91;94782.06;4837165;29;20054;-42
2022/01/04 02:01:51;;;;;;;1.60;0.70;;;;;;;10.14;58.04;94777.84;4823686;29;20047;-44
2022/01/04 02:04:18;;;;;;;1.90;0.60;;;;;;;10.17;58.01;94766.31;4823563;29;20046;-40
2022/01/04 02:06:45;;;;;;;2.78;0.70;;;;;;;10.17;57.80;94763.59;4824261;29;20061;-44
2022/01/04 02:09:12;;;;;;;0.95;0.65;;;;;;;10.20;57.91;94744.75;4826005;29;20050;-44
2022/01/04 02:11:41;;;;;;;1.17;0.65;;;;;;;10.21;58.01;94746.34;4841358;29;20046;-42
2022/01/04 02:14:08;;;;;;;1.88;0.70;;;;;;;10.07;58.29;94735.25;4841197;29;20056;-43
2022/01/04 02:16:35;;;;;;;4.03;1.55;;;;;;;10.21;58.04;94742.84;4841018;29;20413;-40
2022/01/04 02:19:04;;;;;;;2.70;0.93;;;;;;;10.21;58.10;94740.16;4846917;24;20061;-38
2022/01/04 02:21:33;;;;;;;2.42;0.60;;;;;;;10.22;57.89;94741.72;4836508;29;20074;-42
2022/01/04 02:24:01;;;;;;;1.50;0.60;;;;;;;10.22;58.01;94733.59;4822726;29;20107;-40
2022/01/04 02:26:30;;;;;;;3.30;0.70;;;;;;;10.23;58.44;94727.03;4821902;29;20480;-39
2022/01/04 02:28:58;;;;;;;0.85;0.40;;;;;;;10.17;57.67;94717.66;4822464;29;20074;-39
2022/01/04 02:31:26;;;;;;;1.05;0.60;;;;;;;10.22;58.02;94709.28;4830178;29;20053;-39
2022/01/04 02:33:54;;;;;;;1.90;0.98;;;;;;;10.30;57.67;94710.97;4840655;29;20042;-42
2022/01/04 02:36:21;;;;;;;3.58;0.77;;;;;;;10.29;57.44;94704.78;4840213;29;20508;-39
2022/01/04 02:38:50;;;;;;;2.30;0.60;;;;;;;10.32;57.82;94705.22;4854752;29;20097;-40
2022/01/04 02:41:18;;;;;;;1.05;0.50;;;;;;;10.32;57.86;94695.19;4822128;29;20122;-39
2022/01/04 02:43:45;;;;;;;2.25;0.70;;;;;;;10.25;57.87;94681.53;4822332;29;20164;-39
2022/01/04 02:46:12;;;;;;;2.20;0.70;;;;;;;10.24;58.17;94669.16;4821568;29;20047;-39
2022/01/04 02:48:44;;;;;;;1.35;0.60;;;;;;;10.25;58.12;94670.72;4836689;29;20410;-40
2022/01/04 02:51:12;;;;;;;1.02;0.60;;;;;;;10.26;58.27;94661.47;4823933;29;20052;-40
2022/01/04 02:53:39;;;;;;;1.52;0.80;;;;;;;10.23;58.00;94656.75;4840913;29;20500;-39
2022/01/04 02:56:06;;;;;;;1.20;0.60;;;;;;;10.24;58.33;94653.72;4843633;29;20391;-39
2022/01/04 02:58:33;;;;;;;1.45;0.50;;;;;;;10.25;58.25;94657.19;4846370;29;20056;-38
2022/01/04 03:01:00;;;;;;;0.75;0.52;;;;;;;10.25;58.39;94657.19;4845631;29;20045;-38
2022/01/04 03:03:27;;;;;;;1.95;0.63;;;;;;;10.28;58.17;94648.38;4842390;29;20077;-39
2022/01/04 03:05:54;;;;;;;2.53;0.98;;;;;;;10.31;58.35;94630.69;4827682;29;20054;-38
2022/01/04 03:08:22;;;;;;;2.90;1.20;;;;;;;10.36;58.04;94622.25;4828176;29;20145;-39
2022/01/04 03:10:50;;;;;;;1.00;0.65;;;;;;;10.34;58.49;94614.50;4827558;29;20077;-42
2022/01/04 03:13:17;;;;;;;1.08;0.70;;;;;;;10.32;58.68;94616.78;4828040;29;20088;-39
2022/01/04 03:15:46;;;;;;;1.40;0.50;;;;;;;10.30;58.55;94616.34;4827285;29;20053;-38
2022/01/04 03:18:14;;;;;;;1.20;0.60;;;;;;;10.32;58.65;94616.00;4827810;29;20058;-38
2022/01/04 03:20:41;;;;;;;1.83;0.43;;;;;;;10.35;58.72;94621.47;4827769;29;20054;-39
2022/01/04 03:23:10;;;;;;;0.70;0.50;;;;;;;10.35;58.89;94610.66;4827825;29;20050;-39
2022/01/04 03:25:40;;;;;;;1.52;0.50;;;;;;;10.34;58.71;94592.88;4827328;29;20078;-41
2022/01/04 03:28:11;;;;;;;;;;;;;;;10.34;59.03;94590.19;4828307;29;20454;-39
2022/01/04 03:30:38;;;;;;;1.55;0.60;;;;;;;10.36;59.43;94578.97;4827741;29;19948;-41
2022/01/04 03:33:05;;;;;;;0.90;0.60;;;;;;;10.26;59.82;94570.34;4827762;29;20462;-39
2022/01/04 03:35:31;;;;;;;2.00;0.55;;;;;;;10.27;59.35;94574.63;4827182;29;20047;-39
2022/01/04 03:37:58;;;;;;;0.75;0.50;;;;;;;10.29;59.79;94568.84;4827703;29;20050;-39
2022/01/04 03:40:25;;;;;;;2.05;0.70;;;;;;;10.28;59.95;94568.06;4827445;29;20145;-39
2022/01/04 03:42:52;;;;;;;1.55;0.60;;;;;;;10.39;60.06;94562.81;4829608;29;20050;-44
2022/01/04 03:45:19;;;;;;;2.20;0.80;;;;;;;10.28;60.49;94553.78;4827853;29;20081;-39
2022/01/04 03:47:46;;;;;;;1.08;0.60;;;;;;;10.19;60.94;94532.38;4827709;29;20624;-38
2022/01/04 03:50:13;;;;;;;1.48;0.60;;;;;;;10.14;61.56;94527.28;4832216;29;20057;-39
2022/01/04 03:52:40;;;;;;;1.10;0.60;;;;;;;10.17;62.06;94525.75;4827571;29;20058;-39
2022/01/04 03:55:08;;;;;;;2.17;0.60;;;;;;;10.10;62.04;94518.34;4826996;29;20056;-38
2022/01/04 03:57:36;;;;;;;1.13;0.50;;;;;;;10.13;62.14;94508.72;4827650;29;20073;-44
2022/01/04 04:00:07;;;;;;;0.90;0.70;;;;;;;10.12;61.64;94510.66;4827410;29;20523;-41
2022/01/04 04:02:40;;;;;;;0.77;0.55;;;;;;;10.19;61.65;94496.47;4827697;29;20047;-42
2022/01/04 04:05:08;;;;;;;2.15;0.80;;;;;;;10.21;61.43;94502.28;4827459;29;20444;-39
2022/01/04 04:07:34;;;;;;;1.23;0.60;;;;;;;10.26;61.27;94499.28;4824414;29;20073;-38
2022/01/04 04:10:02;;;;;;;3.63;0.90;;;;;;;10.24;61.45;94491.53;4824327;29;20053;-43
2022/01/04 04:12:28;;;;;;;1.02;0.50;;;;;;;10.22;61.60;94476.81;4824826;29;20050;-39
2022/01/04 04:14:58;;;;;;;1.45;0.70;;;;;;;10.44;60.97;94472.50;4838137;29;20507;-39
2022/01/04 04:17:25;;;;;;;0.95;0.63;;;;;;;10.46;61.32;94479.13;4824829;29;20159;-42
2022/01/04 04:19:52;;;;;;;3.03;0.90;;;;;;;10.57;60.65;94478.47;4838806;29;20527;-44
2022/01/04 04:22:20;;;;;;;1.60;0.63;;;;;;;10.10;63.41;94479.72;4824905;29;20073;-42
2022/01/04 04:24:47;;;;;;;2.28;0.85;;;;;;;10.00;62.66;94470.31;4824692;29;20435;-44
2022/01/04 04:27:14;;;;;;;1.65;0.63;;;;;;;10.17;62.54;94464.41;4824563;29;20416;-43
2022/01/04 04:29:41;;;;;;;1.20;0.73;;;;;;;10.12;63.02;94464.72;4824452;29;20121;-42
2022/01/04 04:32:10;;;;;;;1.05;0.70;;;;;;;10.13;63.00;94457.38;4824850;29;20050;-45
2022/01/04 04:34:37;;;;;;;2.30;0.77;;;;;;;10.23;63.50;94462.16;4823982;29;20054;-45
2022/01/04 04:37:04;;;;;;;0.82;0.70;;;;;;;10.21;63.53;94450.94;4824522;29;20061;-42
2022/01/04 04:39:32;;;;;;;0.95;0.60;;;;;;;10.41;63.55;94449.69;4824115;29;20411;-41
2022/01/04 04:41:59;;;;;;;0.98;0.50;;;;;;;10.51;63.88;94457.16;4824657;29;20115;-41
2022/01/04 04:44:26;;;;;;;0.85;0.60;;;;;;;10.10;65.02;94439.19;4823924;29;20096;-42
2022/01/04 04:46:53;;;;;;;1.73;0.85;;;;;;;10.42;64.24;94435.00;4823850;29;20047;-43
2022/01/04 04:49:20;;;;;;;1.80;0.80;;;;;;;9.96;65.15;94431.66;4824484;29;20156;-44
2022/01/04 04:51:47;;;;;;;1.88;0.90;;;;;;;9.83;64.97;94441.91;4824158;29;20076;-40
2022/01/04 04:54:15;;;;;;;2.95;1.00;;;;;;;9.66;65.84;94428.91;4824568;29;20421;-41
2022/01/04 04:56:42;;;;;;;4.03;1.00;;;;;;;9.83;64.98;94434.56;4824142;29;20050;-41
2022/01/04 04:59:09;;;;;;;2.70;1.00;;;;;;;9.66;66.02;94424.28;4838172;29;20129;-44
2022/01/04 05:01:37;;;;;;;2.17;0.68;;;;;;;9.93;64.80;94427.75;4824489;29;20066;-43
2022/01/04 05:04:04;;;;;;;1.67;0.80;;;;;;;10.03;64.70;94420.94;4824410;29;20078;-46
2022/01/04 05:06:31;;;;;;;2.40;1.02;;;;;;;9.50;65.12;94420.97;4823679;29;20409;-45
2022/01/04 05:08:59;;;;;;;2.38;0.90;;;;;;;9.28;65.66;94415.19;4824210;29;20556;-42
2022/01/04 05:11:26;;;;;;;2.70;0.80;;;;;;;9.23;65.64;94412.00;4824505;29;20520;-47
2022/01/04 05:13:53;;;;;;;3.53;1.27;;;;;;;9.49;65.92;94414.78;4823420;29;20148;-40
2022/01/04 05:16:20;;;;;;;1.35;0.80;;;;;;;9.37;66.04;94417.66;4823695;29;20524;-47
2022/01/04 05:18:47;;;;;;;1.52;0.80;;;;;;;9.76;64.41;94417.50;4822600;29;20592;-43
2022/01/04 05:21:14;;;;;;;3.30;0.90;;;;;;;9.53;65.08;94414.84;4822473;29;20046;-43
2022/01/04 05:23:41;;;;;;;2.05;0.80;;;;;;;9.30;66.38;94410.22;4824106;29;20540;-43
2022/01/04 05:26:08;;;;;;;3.92;0.90;;;;;;;9.10;66.92;94408.75;4823549;29;20057;-43
2022/01/04 05:28:35;;;;;;;2.03;0.88;;;;;;;9.21;66.87;94406.22;4824296;29;20050;-41
2022/01/04 05:31:02;;;;;;;2.30;1.08;;;;;;;9.10;66.79;94398.72;4823502;29;20489;-43
2022/01/04 05:33:29;;;;;;;2.50;1.15;;;;;;;9.08;67.15;94394.81;4824034;29;20058;-42
2022/01/04 05:35:56;;;;;;;3.38;1.35;;;;;;;8.96;67.79;94393.06;4824144;29;20481;-43
2022/01/04 05:38:23;;;;;;;2.33;1.15;;;;;;;9.15;67.61;94400.34;4824387;29;20054;-41
2022/01/04 05:40:50;;;;;;;2.42;0.93;;;;;;;8.95;67.91;94390.75;4822519;29;20425;-41
2022/01/04 05:43:17;;;;;;;2.97;1.02;;;;;;;8.99;68.26;94392.34;4823475;29;20054;-42
2022/01/04 05:45:43;;;;;;;5.03;1.30;;;;;;;9.11;67.79;94397.59;4823014;29;20584;-42
2022/01/04 05:48:18;;;;;;;2.47;1.20;;;;;;;9.20;68.36;94396.56;4826134;29;20046;-40
2022/01/04 05:50:45;;;;;;;3.70;1.45;;;;;;;9.13;68.93;94387.22;4826065;29;20054;-43
2022/01/04 05:53:12;;;;;;;1.58;1.00;;;;;;;9.50;68.22;94386.63;4839087;29;20073;-41
2022/01/04 05:55:39;;;;;;;3.35;1.40;;;;;;;9.30;69.15;94383.25;4840725;29;20049;-41
2022/01/04 05:58:06;;;;;;;3.20;1.20;;;;;;;9.23;69.25;94387.72;4841294;29;20134;-40
2022/01/04 06:00:33;;;;;;;3.88;1.48;;;;;;;9.09;69.86;94388.28;4833086;29;20050;-41
2022/01/04 06:03:01;;;;;;;2.85;0.90;;;;;;;9.11;69.71;94391.41;4822460;29;20050;-42
2022/01/04 06:05:29;;;;;;;2.35;1.00;;;;;;;9.06;70.50;94397.88;4821660;29;20141;-41
2022/01/04 06:07:56;;;;;;;2.33;1.02;;;;;;;9.41;70.45;94393.44;4823367;29;20057;-41
2022/01/04 06:10:24;;;;;;;2.67;1.80;;;;;;;9.11;70.81;94405.66;4839653;29;20137;-42
2022/01/04 06:15:18;;;;;;;2.83;1.13;;;;;;;9.41;70.50;94402.28;4840768;29;20461;-42
2022/01/04 06:17:49;;;;;;;2.20;1.10;;;;;;;9.10;71.26;94390.63;4839115;29;20050;-42
2022/01/04 06:20:22;;;;;;;2.67;1.00;;;;;;;8.68;72.62;94381.78;4822102;29;20508;-46
2022/01/04 06:22:50;;;;;;;2.35;1.00;;;;;;;8.61;75.21;94383.22;4823136;29;20129;-44
2022/01/04 06:25:21;;;;;;;2.15;1.15;;;;;;;8.93;73.10;94382.22;4822418;29;20058;-44
2022/01/04 06:27:51;;;;;;;4.30;1.20;;;;;;;8.76;73.85;94378.09;4822843;29;20050;-41
2022/01/04 06:30:20;;;;;;;3.08;1.20;;;;;;;8.43;74.84;94360.53;4821320;29;20450;-43
2022/01/04 06:32:51;;;;;;;2.70;1.13;;;;;;;8.44;75.13;94367.47;4823487;29;20050;-41
2022/01/04 06:35:18;;;;;;;2.47;0.93;;;;;;;8.21;76.79;94375.47;4822499;29;20050;-41
2022/01/04 06:37:46;;;;;;;3.08;1.40;;;;;;;8.16;77.01;94365.00;4822699;29;20141;-41
2022/01/04 06:40:13;;;;;;;2.10;1.00;;;;;;;8.20;78.23;94365.84;4822686;29;20054;-45
2022/01/04 06:42:40;;;;;;;2.33;1.00;;;;;;;8.16;77.56;94357.69;4822668;29;20049;-43
2022/01/04 06:45:08;;;;;;;2.20;0.95;;;;;;;8.33;76.32;94339.53;4822400;29;20060;-44
2022/01/04 06:47:35;;;;;;;2.40;1.00;;;;;;;8.18;78.00;94341.94;4833465;29;20081;-40
2022/01/04 06:50:04;;;;;;;2.30;0.90;;;;;;;8.09;76.78;94333.31;4840950;29;20057;-44
2022/01/04 06:52:31;;;;;;;6.00;3.05;;;;;;;8.13;77.69;94330.69;4829077;29;20054;-41
2022/01/04 06:54:58;;;;;;;3.40;1.20;;;;;;;8.28;77.21;94329.03;4822027;29;20423;-45
2022/01/04 06:57:25;;;;;;;4.03;1.00;;;;;;;8.38;76.73;94331.97;4823041;29;20061;-43
2022/01/04 06:59:51;;;;;;;3.83;1.77;;;;;;;8.31;77.54;94331.78;4822553;29;20058;-44
2022/01/04 07:02:18;;;;;;;4.40;1.30;;;;;;;8.65;78.51;94332.84;4822348;29;20054;-42
2022/01/04 07:04:45;;;;;;;3.90;1.30;;;;;;;8.72;76.71;94334.88;4820741;29;20050;-44
2022/01/04 07:07:13;;;;;;;3.00;1.20;;;;;;;8.68;76.69;94338.63;4822429;29;20073;-44
2022/01/04 07:09:41;;;;;;;2.08;1.15;;;;;;;8.83;76.93;94335.06;4825587;29;20146;-44
2022/01/04 07:12:09;;;;;;;3.70;1.67;;;;;;;8.42;78.54;94326.66;4839500;29;20042;-44
2022/01/04 07:14:36;;;;;;;3.22;1.35;;;;;;;8.29;79.57;94327.91;4840578;29;20445;-45
2022/01/04 07:17:03;;;;;;;4.18;1.25;;;;;;;8.28;79.76;94329.03;4836659;29;20046;-41
2022/01/04 07:19:30;;;;;;;3.55;1.42;;;;;;;8.34;79.76;94325.69;4822307;29;20057;-44
2022/01/04 07:21:57;;;;;;;2.30;1.15;;;;;;;8.17;80.16;94318.06;4822523;29;20074;-43
2022/01/04 07:24:25;;;;;;;4.05;1.48;;;;;;;8.19;80.33;94315.81;4822827;29;20058;-38
2022/01/04 07:26:53;;;;;;;6.07;1.20;;;;;;;8.13;79.64;94309.91;4821310;29;20096;-42
2022/01/04 07:29:19;;;;;;;2.35;1.10;;;;;;;8.22;79.70;94306.97;4822465;29;20064;-42
2022/01/04 07:31:46;;;;;;;3.53;1.25;;;;;;;8.20;79.36;94299.28;4822358;29;20078;-41
2022/01/04 07:34:13;;;;;;;3.25;1.30;;;;;;;8.26;79.94;94296.28;4836713;29;20076;-42
2022/01/04 07:36:40;;;;;;;3.03;1.67;;;;;;;8.29;79.61;94295.59;4821936;29;20050;-43
2022/01/04 07:39:07;;;;;;;1.63;1.00;;;;;;;8.28;79.57;94283.22;4822999;29;20050;-42
2022/01/04 07:41:34;;;;;;;2.42;0.90;;;;;;;8.29;80.51;94284.81;4823446;29;20521;-42
2022/01/04 07:44:01;;;;;;;2.88;1.20;;;;;;;8.33;79.71;94269.47;4825952;29;20078;-42
2022/01/04 07:46:28;;;;;;;3.00;1.52;;;;;;;8.34;79.91;94266.41;4825006;29;20050;-41
2022/01/04 07:48:55;;;;;;;2.95;1.20;;;;;;;8.34;80.01;94260.25;4824641;29;20517;-42
2022/01/04 07:51:22;;;;;;;2.35;1.10;;;;;;;8.38;79.82;94266.50;4825802;29;20644;-41
2022/01/04 07:53:49;;;;;;;3.13;1.20;;;;;;;8.40;80.01;94266.94;4826380;29;20057;-44
2022/01/04 07:56:16;;;;;;;1.90;1.00;;;;;;;8.40;80.62;94259.63;4839197;29;20053;-45
2022/01/04 07:58:43;;;;;;;5.60;1.45;;;;;;;8.36;80.17;94250.66;4825931;29;20065;-41
2022/01/04 08:01:10;;;;;;;4.30;1.20;;;;;;;8.39;80.62;94254.59;4825528;29;20042;-42
2022/01/04 08:03:46;;;;;;;1.42;0.98;;;;;;;8.41;80.98;94245.00;4838312;29;20110;-42
2022/01/04 08:06:15;;;;;;;2.13;1.00;;;;;;;8.50;81.12;94242.06;4825423;29;20050;-41
2022/01/04 08:08:49;;;;;;;4.30;1.30;;;;;;;8.49;81.32;94231.66;4824434;29;20069;-42
2022/01/04 08:11:18;;;;;;;2.42;1.38;;;;;;;8.58;81.74;94237.56;4825593;29;20527;-40
2022/01/04 08:13:45;;;;;;;2.40;1.00;;;;;;;8.69;82.41;94233.13;4825696;29;20054;-42
2022/01/04 08:16:15;;;;;;;2.35;0.90;;;;;;;8.79;82.40;94227.13;4824545;29;20050;-41
2022/01/04 08:18:43;;;;;;;1.13;0.73;;;;;;;8.90;82.77;94211.09;4849275;23;20088;-40
2022/01/04 08:21:30;;;;;;;1.42;0.70;;;;;;;9.01;83.29;94205.88;4839402;29;20034;-41
2022/01/04 08:23:57;;;;;;;1.90;0.60;;;;;;;9.17;83.52;94203.00;4824943;29;20055;-40
2022/01/04 08:26:24;;;;;;;1.13;0.70;;;;;;;9.26;83.23;94206.19;4823286;29;20471;-41
2022/01/04 08:28:51;;;;;;;1.40;0.70;;;;;;;9.32;84.75;94199.34;4825360;29;20098;-45
2022/01/04 08:31:18;;;;;;;2.13;0.60;;;;;;;9.49;83.89;94179.91;4826724;29;20129;-42
2022/01/04 08:33:52;;;;;;;1.70;0.55;;;;;;;9.58;84.09;94169.56;4843025;29;20499;-46
2022/01/04 08:36:26;;;;;;;0.73;0.60;;;;;;;9.69;84.15;94171.66;4841053;29;20146;-44
2022/01/04 08:38:53;;;;;;;0.85;0.50;;;;;;;9.81;83.67;94174.06;4842825;29;20050;-44
2022/01/04 08:41:20;;;;;;;2.13;0.50;;;;;;;9.81;84.11;94166.78;4827575;29;20050;-44
2022/01/04 08:43:47;;;;;;;0.88;0.63;;;;;;;9.91;83.36;94162.63;4824672;29;20519;-40
2022/01/04 08:46:14;;;;;;;2.83;0.70;;;;;;;10.03;83.17;94148.06;4823901;29;20056;-40
2022/01/04 08:48:41;;;;;;;0.88;0.50;;;;;;;10.14;82.71;94150.84;4834724;29;20057;-40
2022/01/04 08:51:08;;;;;;;0.60;0.52;;;;;;;10.18;82.97;94146.28;4841422;29;20050;-42
2022/01/04 08:53:35;;;;;;;1.90;0.50;;;;;;;10.27;83.11;94141.38;4822495;29;20058;-41
2022/01/04 08:56:04;;;;;;;0.93;0.45;;;;;;;10.24;83.05;94132.03;4824045;29;20698;-40
2022/01/04 08:58:31;;;;;;;0.90;0.47;;;;;;;10.21;83.12;94130.09;4824373;29;20051;-41
2022/01/04 09:01:01;;;;;;;1.02;0.60;;;;;;;10.24;83.57;94117.75;4823916;29;20050;-42
2022/01/04 09:03:30;;;;;;;2.67;0.80;;;;;;;10.24;84.29;94120.47;4824279;29;20050;-42
2022/01/04 09:05:57;;;;;;;0.70;0.50;;;;;;;10.22;83.99;94095.72;4823435;29;20131;-43
2022/01/04 09:08:24;;;;;;;2.17;0.60;;;;;;;10.30;83.69;94110.84;4822934;29;20062;-42
2022/01/04 09:10:51;;;;;;;1.77;0.63;;;;;;;10.39;83.46;94119.44;4834325;29;20056;-42
2022/01/04 09:13:20;;;;;;;1.13;0.60;;;;;;;10.34;83.69;94106.28;4842090;29;20050;-39
2022/01/04 09:18:43;;;;;;;1.25;0.70;;;;;;;10.31;83.99;94098.91;4841559;29;20046;-40
2022/01/04 09:18:48;;;;;;;1.95;1.17;;;;;;;10.33;84.11;94109.34;4841926;29;20141;-41
2022/01/04 09:21:26;;;;;;;1.75;0.80;;;;;;;10.42;83.38;94118.69;4838981;29;20705;-42
2022/01/04 09:23:54;;;;;;;1.13;0.70;;;;;;;10.39;83.59;94116.72;4824151;29;20050;-42
2022/01/04 09:26:22;;;;;;;3.50;0.85;;;;;;;10.34;83.49;94122.50;4823147;29;20109;-40
2022/01/04 09:28:49;;;;;;;3.22;0.82;;;;;;;10.29;83.39;94114.72;4823675;29;20469;-43
2022/01/04 09:31:19;;;;;;;2.67;0.80;;;;;;;10.18;83.37;94103.03;4823637;29;20542;-42
2022/01/04 09:33:46;;;;;;;1.75;0.90;;;;;;;10.21;83.21;94094.19;4823635;29;20057;-42
2022/01/04 09:36:34;;;;;;;2.10;0.90;;;;;;;10.17;83.18;94114.97;4823180;29;20047;-41
2022/01/04 09:39:03;;;;;;;4.63;0.93;;;;;;;10.18;83.26;94094.91;4823730;29;20054;-41
2022/01/04 09:41:30;;;;;;;2.05;0.90;;;;;;;10.19;83.06;94097.25;4836931;29;20150;-41
2022/01/04 09:43:57;;;;;;;2.60;1.20;;;;;;;10.15;83.43;94077.53;4841577;29;20435;-40
2022/01/04 09:46:24;;;;;;;1.42;0.85;;;;;;;10.20;83.15;94079.09;4840974;29;20060;-41
2022/01/04 09:48:51;;;;;;;1.70;1.00;;;;;;;10.26;82.59;94069.50;4841749;29;20056;-40
2022/01/04 09:51:18;;;;;;;1.85;1.00;;;;;;;10.31;82.40;94080.00;4825040;29;20054;-44
2022/01/04 09:53:45;;;;;;;5.65;1.27;;;;;;;10.34;81.86;94073.06;4823239;29;20047;-47
2022/01/04 09:56:13;;;;;;;2.83;1.20;;;;;;;10.41;81.53;94068.47;4822660;29;20069;-42
2022/01/04 09:58:41;;;;;;;3.28;1.02;;;;;;;10.44;81.66;94048.03;4823947;29;20078;-45
2022/01/04 10:01:21;;;;;;;2.13;1.00;;;;;;;10.43;81.00;94051.84;4824270;29;20054;-44
2022/01/04 10:04:08;;;;;;;1.08;0.80;;;;;;;10.50;80.18;94063.50;4824500;29;20050;-45
2022/01/04 10:06:37;;;;;;;0.95;0.70;;;;;;;10.65;79.30;94061.66;4836619;29;20062;-41
2022/01/04 10:09:11;;;;;;;2.30;1.20;;;;;;;10.80;78.46;94057.09;4823398;29;20133;-46
2022/01/04 10:11:47;;;;;;;2.30;0.70;;;;;;;10.91;77.32;94047.09;4823608;29;20074;-44
2022/01/04 10:14:27;;;;;;;2.78;1.50;;;;;;;11.04;76.29;94046.75;4823951;29;20050;-43
2022/01/04 10:17:19;;;;;;;0.90;0.65;;;;;;;11.17;74.85;94048.75;4821872;29;20049;-45
2022/01/04 10:19:53;;;;;;;0.82;0.50;;;;;;;11.29;73.53;94036.81;4823237;29;20061;-42
2022/01/04 10:22:20;;;;;;;1.00;0.70;;;;;;;11.43;74.03;94044.94;4836903;29;20126;-43
2022/01/04 10:24:49;;;;;;;0.75;0.60;;;;;;;11.40;74.06;94040.31;4823372;29;20054;-40
2022/01/04 10:27:22;;;;;;;1.70;0.60;;;;;;;11.48;73.27;94029.50;4822896;29;20054;-45
2022/01/04 10:29:49;;;;;;;1.70;0.80;;;;;;;11.51;73.25;94020.63;4823248;29;20070;-43
2022/01/04 10:32:17;;;;;;;1.65;0.80;;;;;;;11.60;72.78;94021.00;4823056;29;20053;-44
2022/01/04 10:34:48;;;;;;;2.38;1.20;;;;;;;11.68;72.79;94022.56;4821926;29;20516;-42
2022/01/04 10:37:36;;;;;;;2.47;1.00;;;;;;;11.69;72.32;94019.47;4822498;29;20400;-41
2022/01/04 10:40:08;;;;;;;1.70;0.80;;;;;;;11.76;72.46;94015.97;4829164;29;20529;-40
2022/01/04 10:42:35;;;;;;;0.82;0.60;;;;;;;11.91;71.90;94012.16;4841205;29;20511;-41
2022/01/04 10:45:39;;;;;;;1.27;0.63;;;;;;;11.93;71.65;94009.84;4840930;29;20060;-44
2022/01/04 10:48:19;;;;;;;1.45;0.85;;;;;;;11.88;71.76;94012.16;4841001;29;20046;-42
2022/01/04 10:51:05;;;;;;;1.52;0.95;;;;;;;12.00;71.49;94000.94;4822853;29;20061;-45
2022/01/04 10:53:54;;;;;;;1.30;0.77;;;;;;;12.07;71.23;93994.72;4821780;29;20068;-44
2022/01/04 10:56:33;;;;;;;3.38;1.35;;;;;;;12.33;71.09;93985.41;4821218;29;20054;-46
2022/01/04 10:59:05;;;;;;;1.80;0.82;;;;;;;12.12;71.07;93973.44;4822574;29;20050;-45
2022/01/04 11:01:39;;;;;;;1.33;0.77;;;;;;;12.34;70.28;93974.16;4821843;29;20046;-39
2022/01/04 11:04:15;;;;;;;1.25;0.70;;;;;;;12.60;68.68;93966.72;4822728;29;20111;-44
2022/01/04 11:06:42;;;;;;;1.27;0.70;;;;;;;12.82;66.81;93960.03;4822052;29;20046;-47
2022/01/04 11:09:10;;;;;;;0.90;0.60;;;;;;;13.05;66.26;93961.50;4822443;29;20446;-45
2022/01/04 11:11:38;;;;;;;1.27;0.65;;;;;;;13.18;65.09;93953.66;4823036;29;20053;-44
2022/01/04 11:14:08;;;;;;;1.33;0.70;;;;;;;13.32;64.81;93948.16;4823103;29;20050;-43
2022/01/04 11:16:35;;;;;;;1.48;0.80;;;;;;;13.46;63.78;93958.19;4823117;29;20053;-42
2022/01/04 11:19:03;;;;;;;0.88;0.68;;;;;;;13.58;62.47;93957.69;4826201;29;20047;-43
2022/01/04 11:21:34;;;;;;;1.17;0.70;;;;;;;13.64;62.93;93947.94;4832254;29;20078;-48
2022/01/04 11:24:04;;;;;;;1.70;0.95;;;;;;;13.67;63.02;93941.72;4825861;29;20069;-42
2022/01/04 11:26:32;;;;;;;1.38;0.70;;;;;;;13.78;62.42;93939.69;4825379;29;20069;-44
2022/01/04 11:28:59;;;;;;;0.60;0.60;;;;;;;13.91;60.96;93926.38;4825528;29;20042;-49
2022/01/04 11:31:47;;;;;;;1.48;0.65;;;;;;;14.11;61.10;93918.44;4824286;29;20054;-41
2022/01/04 11:34:22;;;;;;;0.82;0.60;;;;;;;14.27;59.59;93913.22;4825948;29;20073;-45
2022/01/04 11:36:51;;;;;;;0.70;0.50;;;;;;;14.39;58.08;93905.69;4825355;29;20389;-43
2022/01/04 11:39:31;;;;;;;1.05;0.77;;;;;;;14.48;58.33;93901.31;4833173;29;20141;-43
2022/01/04 11:42:07;;;;;;;0.60;0.60;;;;;;;14.49;58.43;93902.06;4843976;29;20129;-42
2022/01/04 11:44:44;;;;;;;0.95;0.50;;;;;;;14.49;57.74;93902.06;4844038;29;20045;-47
2022/01/04 11:47:18;;;;;;;1.88;0.60;;;;;;;14.53;57.84;93881.09;4843324;29;20058;-47
2022/01/04 11:50:10;;;;;;;0.85;0.60;;;;;;;14.62;56.78;93866.97;4845395;29;20049;-48
2022/01/04 11:52:42;;;;;;;0.93;0.70;;;;;;;14.73;56.81;93882.00;4832166;29;20050;-48